Time;durP1;ratioP1;P1;durP2;ratioP2;P2;SDS_P1;SDS_P2;PMS_P1;PMS_P2;Temp;Humidity;BMP_temperature;BMP_pressure;BME280_temperature;BME280_humidity;BME280_pressure;Samples;Min_cycle;Max_cycle;Signal;HPM_P1;HPM_P2
2023/06/11 00:00:46;;;;;;;9.32;8.52;;;21.10;99.90;;;;;;5111894;28;20274;-71
2023/06/11 00:03:14;;;;;;;9.30;8.30;;;21.10;99.90;;;;;;5110964;28;20275;-71
2023/06/11 00:05:43;;;;;;;9.25;8.38;;;21.10;99.90;;;;;;5110968;28;20203;-71
2023/06/11 00:08:11;;;;;;;9.38;8.60;;;21.10;99.90;;;;;;5111773;28;20227;-71
2023/06/11 00:10:39;;;;;;;8.95;8.15;;;21.10;99.90;;;;;;5111549;28;20222;-72
2023/06/11 00:13:07;;;;;;;9.85;8.85;;;21.10;99.90;;;;;;5111333;28;20210;-72
2023/06/11 00:15:35;;;;;;;10.05;9.20;;;21.10;99.90;;;;;;5110844;28;20564;-72
2023/06/11 00:18:03;;;;;;;9.38;8.43;;;21.10;99.90;;;;;;5111379;28;20259;-71
2023/06/11 00:20:32;;;;;;;10.45;8.10;;;21.10;99.90;;;;;;5111268;28;20225;-71
2023/06/11 00:23:01;;;;;;;10.88;8.70;;;21.10;99.90;;;;;;5110003;28;20207;-71
2023/06/11 00:25:29;;;;;;;9.15;8.35;;;21.10;99.90;;;;;;5110602;28;20226;-71
2023/06/11 00:27:57;;;;;;;9.20;8.40;;;21.10;99.90;;;;;;5111151;28;20263;-71
2023/06/11 00:30:25;;;;;;;9.82;7.80;;;21.10;99.90;;;;;;5111280;28;20194;-71
2023/06/11 00:32:53;;;;;;;8.60;7.80;;;21.10;99.90;;;;;;5111170;28;20211;-71
2023/06/11 00:35:21;;;;;;;8.18;7.57;;;21.10;99.90;;;;;;5110760;28;20191;-71
2023/06/11 00:37:49;;;;;;;9.65;8.50;;;21.00;99.90;;;;;;5092121;28;20365;-72
2023/06/11 00:40:19;;;;;;;10.43;8.50;;;21.10;99.90;;;;;;5090785;28;20199;-71
2023/06/11 00:42:49;;;;;;;8.93;8.23;;;21.10;99.90;;;;;;5090394;28;20196;-71
2023/06/11 00:45:18;;;;;;;8.52;7.80;;;21.10;99.90;;;;;;5090552;28;20235;-71
2023/06/11 00:47:45;;;;;;;9.65;8.63;;;21.10;99.90;;;;;;5090273;28;20747;-71
2023/06/11 00:50:15;;;;;;;11.77;8.82;;;21.10;99.90;;;;;;5090279;28;20668;-71
2023/06/11 00:52:43;;;;;;;8.73;8.13;;;21.00;99.90;;;;;;5096977;28;20771;-72
2023/06/11 00:55:11;;;;;;;9.02;8.23;;;21.00;99.90;;;;;;5110100;28;20345;-72
2023/06/11 00:57:41;;;;;;;8.80;8.05;;;21.00;99.90;;;;;;5092994;28;20224;-71
2023/06/11 01:00:12;;;;;;;9.30;8.30;;;20.90;99.90;;;;;;5091831;28;20211;-71
2023/06/11 01:02:44;;;;;;;9.30;8.15;;;20.90;99.90;;;;;;5102207;28;20195;-71
2023/06/11 01:05:17;;;;;;;8.25;7.63;;;20.90;99.90;;;;;;5109934;28;20183;-72
2023/06/11 01:07:50;;;;;;;9.90;9.10;;;20.80;99.90;;;;;;5110656;28;20250;-71
2023/06/11 01:10:18;;;;;;;8.95;8.18;;;20.80;99.90;;;;;;5110358;28;20207;-72
2023/06/11 01:12:48;;;;;;;9.63;8.07;;;20.80;99.90;;;;;;5101972;28;20249;-71
2023/06/11 01:15:16;;;;;;;11.35;8.75;;;20.80;99.90;;;;;;5109601;28;20276;-71
2023/06/11 01:17:47;;;;;;;11.32;8.27;;;20.70;99.90;;;;;;5110413;28;20231;-71
2023/06/11 01:20:17;;;;;;;9.02;8.35;;;20.70;99.90;;;;;;5110381;28;20690;-71
2023/06/11 01:23:00;;;;;;;9.02;7.88;;;20.70;99.90;;;;;;5110340;28;20210;-72
2023/06/11 01:25:31;;;;;;;8.77;8.07;;;20.70;99.90;;;;;;5109686;28;20409;-71
2023/06/11 01:28:03;;;;;;;9.52;8.63;;;20.70;99.90;;;;;;5110036;28;20727;-72
2023/06/11 01:30:33;;;;;;;9.60;7.95;;;20.70;99.90;;;;;;5110058;28;20665;-72
2023/06/11 01:33:01;;;;;;;8.95;8.13;;;20.60;99.90;;;;;;5110034;28;20203;-72
2023/06/11 01:35:30;;;;;;;11.45;8.30;;;20.60;99.90;;;;;;5109450;28;20237;-72
2023/06/11 01:37:58;;;;;;;8.88;8.13;;;20.60;99.90;;;;;;5109957;28;20234;-72
2023/06/11 01:40:27;;;;;;;8.38;7.55;;;20.60;99.90;;;;;;5109473;28;20241;-71
2023/06/11 01:42:55;;;;;;;8.85;8.20;;;20.50;99.90;;;;;;5103074;28;20188;-71
2023/06/11 01:45:26;;;;;;;9.43;8.02;;;20.50;99.90;;;;;;5089180;28;20240;-71
2023/06/11 01:47:53;;;;;;;14.00;8.18;;;20.50;99.90;;;;;;5089945;28;20223;-71
2023/06/11 01:50:21;;;;;;;9.23;7.85;;;20.50;99.90;;;;;;5089914;28;20257;-71
2023/06/11 01:52:49;;;;;;;8.52;7.72;;;20.40;99.90;;;;;;5087097;28;20300;-71
2023/06/11 01:55:17;;;;;;;9.02;8.02;;;20.40;99.90;;;;;;5088783;28;20663;-71
2023/06/11 01:57:46;;;;;;;10.70;8.10;;;20.40;99.90;;;;;;5089393;28;20585;-71
2023/06/11 02:00:15;;;;;;;8.93;8.13;;;20.40;99.90;;;;;;5089221;28;20192;-72
2023/06/11 02:02:47;;;;;;;9.90;8.40;;;20.40;99.90;;;;;;5091411;28;20204;-71
2023/06/11 02:05:15;;;;;;;9.05;8.25;;;20.40;99.90;;;;;;5090650;28;20211;-71
2023/06/11 02:07:43;;;;;;;8.35;7.65;;;20.30;99.90;;;;;;5091772;28;20223;-71
2023/06/11 02:10:11;;;;;;;8.13;7.45;;;20.30;99.90;;;;;;5091441;28;20208;-71
2023/06/11 02:12:39;;;;;;;8.57;7.72;;;20.30;99.90;;;;;;5091582;28;20232;-71
2023/06/11 02:15:08;;;;;;;9.15;8.35;;;20.30;99.90;;;;;;5090596;28;20306;-72
2023/06/11 02:17:36;;;;;;;9.65;7.35;;;20.20;99.90;;;;;;5091593;28;20224;-71
2023/06/11 02:20:08;;;;;;;11.20;8.07;;;20.20;99.90;;;;;;5091530;28;20198;-71
2023/06/11 02:22:35;;;;;;;7.85;7.22;;;20.10;99.90;;;;;;5091508;28;20204;-71
2023/06/11 02:25:04;;;;;;;8.50;7.70;;;20.10;99.90;;;;;;5091481;28;20249;-71
2023/06/11 02:27:31;;;;;;;8.63;7.93;;;20.10;99.90;;;;;;5095337;28;20311;-71
2023/06/11 02:30:00;;;;;;;8.52;7.63;;;20.10;99.90;;;;;;5095164;28;20200;-72
2023/06/11 02:32:28;;;;;;;8.85;8.10;;;20.00;99.90;;;;;;5095038;28;20204;-71
2023/06/11 02:34:56;;;;;;;8.02;7.43;;;20.00;99.90;;;;;;5094675;28;20232;-71
2023/06/11 02:37:25;;;;;;;9.20;8.02;;;20.00;99.90;;;;;;5095005;28;20228;-71
2023/06/11 02:39:53;;;;;;;9.25;8.27;;;19.90;99.90;;;;;;5095108;28;20600;-71
2023/06/11 02:42:21;;;;;;;8.70;8.00;;;19.90;99.90;;;;;;5094922;28;20294;-71
2023/06/11 02:44:48;;;;;;;11.70;8.75;;;19.90;99.90;;;;;;5093912;28;20265;-71
2023/06/11 02:47:16;;;;;;;8.60;7.88;;;19.90;99.90;;;;;;5094104;28;20724;-71
2023/06/11 02:49:44;;;;;;;8.68;7.82;;;19.80;99.90;;;;;;5094649;28;20748;-71
2023/06/11 02:52:12;;;;;;;8.90;8.10;;;19.80;99.90;;;;;;5094643;28;20200;-72
2023/06/11 02:54:41;;;;;;;9.52;7.68;;;19.70;99.90;;;;;;5093959;28;20331;-72
2023/06/11 02:57:09;;;;;;;8.50;7.78;;;19.70;99.90;;;;;;5094212;28;20645;-71
2023/06/11 02:59:37;;;;;;;8.50;7.60;;;19.70;99.90;;;;;;5095016;28;20208;-71
2023/06/11 03:02:06;;;;;;;9.18;8.38;;;19.70;99.90;;;;;;5094569;28;20571;-72
2023/06/11 03:04:33;;;;;;;9.15;8.27;;;19.70;99.90;;;;;;5101244;28;20227;-72
2023/06/11 03:07:01;;;;;;;9.35;8.65;;;19.60;99.90;;;;;;5113234;28;20280;-71
2023/06/11 03:09:29;;;;;;;9.25;7.97;;;19.60;99.90;;;;;;5112837;28;20282;-71
2023/06/11 03:11:58;;;;;;;10.65;7.95;;;19.60;99.90;;;;;;5112624;28;20597;-72
2023/06/11 03:14:27;;;;;;;13.90;8.82;;;19.60;99.90;;;;;;5112489;28;20199;-72
2023/06/11 03:16:55;;;;;;;9.38;8.55;;;19.50;99.90;;;;;;5112066;28;20254;-72
2023/06/11 03:19:23;;;;;;;9.25;8.45;;;19.50;99.90;;;;;;5112813;28;20279;-71
2023/06/11 03:21:50;;;;;;;13.73;8.32;;;19.50;99.90;;;;;;5112216;28;20187;-71
2023/06/11 03:24:18;;;;;;;10.75;8.35;;;19.50;99.90;;;;;;5112188;28;20204;-71
2023/06/11 03:26:46;;;;;;;9.57;8.63;;;19.40;99.90;;;;;;5111999;28;20400;-71
2023/06/11 03:29:15;;;;;;;9.45;8.65;;;19.30;99.90;;;;;;5112680;28;20615;-71
2023/06/11 03:31:43;;;;;;;8.77;7.88;;;19.30;99.90;;;;;;5112757;28;20202;-71
2023/06/11 03:34:11;;;;;;;9.57;7.88;;;19.20;99.90;;;;;;5112572;28;20201;-71
2023/06/11 03:36:39;;;;;;;9.32;8.63;;;19.20;99.90;;;;;;5110496;28;20654;-71
2023/06/11 03:39:07;;;;;;;8.65;7.68;;;19.20;99.90;;;;;;5112351;28;20206;-71
2023/06/11 03:41:35;;;;;;;8.32;7.60;;;19.20;99.90;;;;;;5112537;28;20310;-71
2023/06/11 03:44:03;;;;;;;8.82;7.97;;;19.20;99.90;;;;;;5112123;28;20191;-71
2023/06/11 03:46:32;;;;;;;10.20;9.05;;;19.20;99.90;;;;;;5111633;28;20296;-71
2023/06/11 03:49:00;;;;;;;10.18;9.13;;;19.20;99.90;;;;;;5111853;28;20645;-71
2023/06/11 03:51:28;;;;;;;9.07;8.18;;;19.20;99.90;;;;;;5111754;28;20256;-71
2023/06/11 03:53:56;;;;;;;9.10;8.20;;;19.20;99.90;;;;;;5111916;28;20278;-71
2023/06/11 03:56:24;;;;;;;9.27;8.40;;;19.20;99.90;;;;;;5110145;28;20317;-71
2023/06/11 03:58:52;;;;;;;9.52;8.70;;;19.20;99.90;;;;;;5111050;28;20656;-72
2023/06/11 04:01:20;;;;;;;9.82;8.82;;;19.20;99.90;;;;;;5110790;28;20241;-72
2023/06/11 04:03:49;;;;;;;11.82;8.52;;;19.20;99.90;;;;;;5111063;28;20220;-71
2023/06/11 04:06:18;;;;;;;12.43;8.63;;;19.20;99.90;;;;;;5110386;28;20224;-71
2023/06/11 04:08:46;;;;;;;9.35;8.50;;;19.20;99.90;;;;;;5111003;28;20195;-72
2023/06/11 04:11:14;;;;;;;10.15;8.90;;;19.20;99.90;;;;;;5110474;28;20270;-71
2023/06/11 04:13:42;;;;;;;9.15;8.35;;;19.20;99.90;;;;;;5110841;28;20191;-71
2023/06/11 04:16:10;;;;;;;11.15;8.70;;;19.20;99.90;;;;;;5109648;28;20761;-71
2023/06/11 04:18:37;;;;;;;8.98;8.18;;;19.30;99.90;;;;;;5110574;28;20236;-71
2023/06/11 04:21:07;;;;;;;9.35;7.72;;;19.30;99.90;;;;;;5110204;28;20294;-71
2023/06/11 04:23:34;;;;;;;9.48;8.30;;;19.30;99.90;;;;;;5110657;28;20212;-71
2023/06/11 04:26:02;;;;;;;14.25;8.52;;;19.30;99.90;;;;;;5109746;28;20243;-72
2023/06/11 04:28:30;;;;;;;9.30;8.38;;;19.30;99.90;;;;;;5111946;28;20215;-71
2023/06/11 04:30:58;;;;;;;9.45;8.45;;;19.30;99.90;;;;;;5111406;28;20664;-71
2023/06/11 04:33:32;;;;;;;9.90;8.32;;;19.30;99.90;;;;;;5111715;28;20214;-71
2023/06/11 04:36:01;;;;;;;8.82;8.05;;;19.30;99.90;;;;;;5110508;28;20227;-71
2023/06/11 04:38:30;;;;;;;8.80;7.72;;;19.40;99.90;;;;;;5084682;22;1058811;-63
2023/06/11 04:40:58;;;;;;;8.80;8.10;;;19.30;99.90;;;;;;5093099;28;20199;-64
2023/06/11 04:43:27;;;;;;;8.32;7.53;;;19.40;99.90;;;;;;5092689;28;20727;-63
2023/06/11 04:45:55;;;;;;;8.77;7.88;;;19.40;99.90;;;;;;5092486;28;20259;-62
2023/06/11 04:48:24;;;;;;;8.45;7.88;;;19.50;99.90;;;;;;5092518;28;20211;-63
2023/06/11 04:50:52;;;;;;;9.25;8.35;;;19.50;99.90;;;;;;5092623;28;20262;-63
2023/06/11 04:53:22;;;;;;;9.18;8.27;;;19.50;99.90;;;;;;5092174;28;20635;-62
2023/06/11 04:55:54;;;;;;;8.88;7.97;;;19.50;99.90;;;;;;5091980;28;20266;-61
2023/06/11 04:58:23;;;;;;;8.73;8.02;;;19.50;99.90;;;;;;5092801;28;20281;-61
2023/06/11 05:00:51;;;;;;;9.23;8.15;;;19.60;99.90;;;;;;5092627;28;20234;-61
2023/06/11 05:03:21;;;;;;;9.48;7.97;;;19.60;99.90;;;;;;5092588;28;20240;-61
2023/06/11 05:05:51;;;;;;;9.23;8.35;;;19.60;99.90;;;;;;5092118;28;20289;-60
2023/06/11 05:08:20;;;;;;;9.05;7.75;;;19.70;99.90;;;;;;5092538;28;20208;-60
2023/06/11 05:10:47;;;;;;;8.60;7.90;;;19.70;99.90;;;;;;5092238;28;20403;-62
2023/06/11 05:13:22;;;;;;;8.52;7.72;;;19.70;99.90;;;;;;5092287;28;20652;-61
2023/06/11 05:15:50;;;;;;;8.70;7.90;;;19.80;99.90;;;;;;5091817;28;20771;-62
2023/06/11 05:18:17;;;;;;;7.88;6.90;;;19.80;99.90;;;;;;5092327;28;20231;-61
2023/06/11 05:20:47;;;;;;;8.68;7.88;;;19.80;99.90;;;;;;5092068;28;20288;-61
2023/06/11 05:23:15;;;;;;;9.10;8.27;;;19.90;99.90;;;;;;5092170;28;20250;-61
2023/06/11 05:25:46;;;;;;;8.65;7.85;;;19.90;99.90;;;;;;5091898;28;20260;-62
2023/06/11 05:28:15;;;;;;;8.32;7.63;;;20.00;99.90;;;;;;5092220;28;20294;-62
2023/06/11 05:30:45;;;;;;;11.38;8.20;;;20.00;99.90;;;;;;5092057;28;20207;-62
2023/06/11 05:33:13;;;;;;;7.95;7.32;;;20.00;99.90;;;;;;5092320;28;20208;-62
2023/06/11 05:35:43;;;;;;;8.15;7.28;;;20.10;99.90;;;;;;5091331;28;20224;-61
2023/06/11 05:38:11;;;;;;;8.57;7.68;;;20.20;99.90;;;;;;5091972;28;20581;-62
2023/06/11 05:40:39;;;;;;;8.50;7.70;;;20.20;99.90;;;;;;5091995;28;20302;-62
2023/06/11 05:43:07;;;;;;;8.23;7.50;;;20.30;99.90;;;;;;5091851;28;20721;-61
2023/06/11 05:45:35;;;;;;;7.05;6.32;;;20.30;99.90;;;;;;5091592;28;20224;-61
2023/06/11 05:48:05;;;;;;;7.82;7.13;;;20.40;99.90;;;;;;5090354;28;20686;-62
2023/06/11 05:50:33;;;;;;;10.52;6.93;;;20.40;99.90;;;;;;5090187;28;20712;-61
2023/06/11 05:53:01;;;;;;;7.82;6.72;;;20.50;99.90;;;;;;5081848;28;20575;-62
2023/06/11 05:55:29;;;;;;;7.90;6.93;;;20.60;99.90;;;;;;5109725;22;20780;-62
2023/06/11 05:57:57;;;;;;;7.22;6.53;;;20.70;99.90;;;;;;5109690;28;20255;-62
2023/06/11 06:00:25;;;;;;;10.48;6.63;;;20.80;99.90;;;;;;5111280;28;20295;-58
2023/06/11 06:02:53;;;;;;;7.30;6.80;;;20.80;99.90;;;;;;5114100;28;20601;-59
2023/06/11 06:05:22;;;;;;;7.53;6.95;;;20.80;99.90;;;;;;5113851;28;20313;-59
2023/06/11 06:07:50;;;;;;;12.95;6.78;;;20.90;99.90;;;;;;5113755;28;20207;-59
2023/06/11 06:10:18;;;;;;;7.55;6.90;;;21.00;99.90;;;;;;5107393;28;20293;-58
2023/06/11 06:12:46;;;;;;;7.78;6.95;;;21.10;99.90;;;;;;5115819;28;20690;-59
2023/06/11 06:15:14;;;;;;;7.20;6.45;;;21.10;99.90;;;;;;5115263;28;20652;-60
2023/06/11 06:17:42;;;;;;;7.47;6.72;;;21.20;99.90;;;;;;5115834;28;20288;-59
2023/06/11 06:20:11;;;;;;;8.48;6.55;;;21.20;99.90;;;;;;5115974;28;20207;-58
2023/06/11 06:22:41;;;;;;;6.47;5.88;;;21.30;99.90;;;;;;5115819;28;20207;-59
2023/06/11 06:25:09;;;;;;;10.15;7.20;;;21.30;99.90;;;;;;5115348;28;20259;-60
2023/06/11 06:27:37;;;;;;;7.88;7.05;;;21.40;99.90;;;;;;5115495;28;20199;-59
2023/06/11 06:30:06;;;;;;;6.88;6.35;;;21.50;99.90;;;;;;5115447;28;20735;-59
2023/06/11 06:32:34;;;;;;;7.18;6.68;;;21.60;99.90;;;;;;5115772;28;20602;-60
2023/06/11 06:35:02;;;;;;;6.85;6.30;;;21.70;99.90;;;;;;5115092;28;20227;-58
2023/06/11 06:37:30;;;;;;;6.90;6.30;;;21.80;99.90;;;;;;5115397;28;20219;-59
2023/06/11 06:39:59;;;;;;;6.55;6.07;;;21.90;99.90;;;;;;5115640;28;20650;-59
2023/06/11 06:42:27;;;;;;;6.57;6.10;;;21.90;99.90;;;;;;5112104;28;20637;-59
2023/06/11 06:44:57;;;;;;;7.07;6.35;;;21.90;99.90;;;;;;5094863;28;20290;-59
2023/06/11 06:47:25;;;;;;;13.95;6.63;;;22.00;99.90;;;;;;5094916;28;20716;-59
2023/06/11 06:49:53;;;;;;;7.30;6.13;;;22.10;99.90;;;;;;5094980;28;20207;-59
2023/06/11 06:52:20;;;;;;;6.80;5.95;;;22.10;99.90;;;;;;5094876;28;20306;-59
2023/06/11 06:54:50;;;;;;;5.90;5.32;;;22.20;99.90;;;;;;5094575;28;20709;-59
2023/06/11 06:57:19;;;;;;;7.30;6.22;;;22.30;99.90;;;;;;5094852;28;20227;-59
2023/06/11 06:59:47;;;;;;;7.75;6.60;;;22.30;99.90;;;;;;5094918;28;20250;-59
2023/06/11 07:02:15;;;;;;;10.13;5.70;;;22.40;99.90;;;;;;5094679;28;20254;-60
2023/06/11 07:04:43;;;;;;;6.72;6.15;;;22.50;99.90;;;;;;5094450;28;20742;-58
2023/06/11 07:07:11;;;;;;;7.32;6.60;;;22.50;99.90;;;;;;5094568;28;20208;-59
2023/06/11 07:09:39;;;;;;;7.00;5.40;;;22.60;99.90;;;;;;5094998;28;20234;-59
2023/06/11 07:12:08;;;;;;;7.10;6.10;;;22.70;99.90;;;;;;5094152;28;20207;-60
2023/06/11 07:14:37;;;;;;;6.30;5.80;;;22.70;99.90;;;;;;5094277;28;20243;-58
2023/06/11 07:17:05;;;;;;;8.65;6.53;;;22.80;99.90;;;;;;5093008;28;20670;-60
2023/06/11 07:19:33;;;;;;;6.85;6.35;;;22.80;99.90;;;;;;5094331;28;20295;-59
2023/06/11 07:22:01;;;;;;;9.32;6.35;;;22.90;99.90;;;;;;5094194;28;20236;-59
2023/06/11 07:24:29;;;;;;;6.28;5.78;;;23.00;99.90;;;;;;5094485;28;20243;-60
2023/06/11 07:26:57;;;;;;;6.80;6.30;;;23.10;99.90;;;;;;5093902;28;20781;-60
2023/06/11 07:29:25;;;;;;;6.13;5.57;;;23.20;99.90;;;;;;5094195;28;20243;-59
2023/06/11 07:31:55;;;;;;;6.53;5.88;;;23.30;99.90;;;;;;5093764;28;20232;-59
2023/06/11 07:34:23;;;;;;;6.93;5.95;;;23.40;99.90;;;;;;5093968;28;20207;-59
2023/06/11 07:36:51;;;;;;;6.72;6.13;;;23.50;99.90;;;;;;5093682;28;20232;-59
2023/06/11 07:39:19;;;;;;;6.13;5.72;;;23.50;99.90;;;;;;5093165;28;20204;-60
2023/06/11 07:41:47;;;;;;;6.05;5.65;;;23.60;99.90;;;;;;5094150;28;20247;-60
2023/06/11 07:44:15;;;;;;;5.72;5.32;;;23.70;99.90;;;;;;5111969;28;20678;-59
2023/06/11 07:46:45;;;;;;;6.03;5.45;;;23.70;99.90;;;;;;5113734;28;20254;-59
2023/06/11 07:49:14;;;;;;;7.30;5.88;;;23.80;99.90;;;;;;5114530;28;20299;-60
2023/06/11 07:51:44;;;;;;;5.30;5.00;;;23.80;99.90;;;;;;5114414;28;20239;-60
2023/06/11 07:54:12;;;;;;;6.32;5.80;;;23.90;99.90;;;;;;5114311;28;20229;-60
2023/06/11 07:56:40;;;;;;;5.57;5.15;;;24.00;99.90;;;;;;5113795;28;20671;-60
2023/06/11 07:59:08;;;;;;;6.88;5.50;;;24.10;99.90;;;;;;5114089;28;20268;-59
2023/06/11 08:01:36;;;;;;;7.38;5.70;;;24.20;99.90;;;;;;5113864;28;20657;-59
2023/06/11 08:04:05;;;;;;;5.82;5.43;;;24.20;99.90;;;;;;5113577;28;20251;-60
2023/06/11 08:06:35;;;;;;;6.30;5.75;;;24.20;99.90;;;;;;5113084;28;20262;-60
2023/06/11 08:09:03;;;;;;;6.72;6.13;;;24.30;99.90;;;;;;5114064;28;20203;-59
2023/06/11 08:11:31;;;;;;;6.13;5.53;;;24.40;99.90;;;;;;5113739;28;20238;-59
2023/06/11 08:13:59;;;;;;;7.60;5.40;;;24.50;99.90;;;;;;5113433;28;20234;-60
2023/06/11 08:16:28;;;;;;;6.80;5.10;;;24.60;99.90;;;;;;5113471;28;20231;-59
2023/06/11 08:18:57;;;;;;;6.07;5.65;;;24.70;99.90;;;;;;5113869;28;20223;-60
2023/06/11 08:21:25;;;;;;;6.20;5.80;;;24.80;99.90;;;;;;5113726;28;20588;-60
2023/06/11 08:23:54;;;;;;;7.03;5.45;;;25.00;99.90;;;;;;5113038;28;20297;-60
2023/06/11 08:26:22;;;;;;;6.45;5.75;;;25.10;99.90;;;;;;5112928;28;20309;-59
2023/06/11 08:28:50;;;;;;;8.68;4.85;;;25.10;99.90;;;;;;5113756;28;20204;-59
2023/06/11 08:31:18;;;;;;;6.28;5.65;;;25.30;99.90;;;;;;5113500;28;20290;-59
2023/06/11 08:33:46;;;;;;;6.20;5.60;;;25.40;99.90;;;;;;5111933;28;20211;-60
2023/06/11 08:36:14;;;;;;;7.38;5.28;;;25.50;99.90;;;;;;5111023;28;20250;-60
2023/06/11 08:38:42;;;;;;;5.55;4.90;;;25.50;99.90;;;;;;5111282;28;20215;-60
2023/06/11 08:41:11;;;;;;;5.78;5.38;;;25.70;99.90;;;;;;5111471;28;20257;-60
2023/06/11 08:43:39;;;;;;;5.40;4.90;;;25.70;99.90;;;;;;5098877;28;20258;-60
2023/06/11 08:46:07;;;;;;;6.57;4.90;;;25.80;99.90;;;;;;5091450;28;20224;-58
2023/06/11 08:48:37;;;;;;;5.03;4.47;;;25.90;99.90;;;;;;5092556;28;20249;-60
2023/06/11 08:51:05;;;;;;;6.07;5.57;;;26.00;99.90;;;;;;5092601;28;20746;-59
2023/06/11 08:53:33;;;;;;;6.07;5.53;;;26.00;99.90;;;;;;5092596;28;20254;-59
2023/06/11 08:56:01;;;;;;;9.80;5.72;;;26.00;99.90;;;;;;5092173;28;20323;-60
2023/06/11 08:58:30;;;;;;;8.82;5.28;;;26.00;99.90;;;;;;5092404;28;20703;-60
2023/06/11 09:00:58;;;;;;;7.55;5.32;;;26.20;99.90;;;;;;5092419;28;20300;-60
2023/06/11 09:03:26;;;;;;;7.53;5.57;;;26.30;99.90;;;;;;5092456;28;20240;-60
2023/06/11 09:05:54;;;;;;;8.50;5.72;;;26.50;99.90;;;;;;5091937;28;20220;-60
2023/06/11 09:08:22;;;;;;;6.00;5.45;;;26.60;99.90;;;;;;5092394;28;20215;-61
2023/06/11 09:10:50;;;;;;;6.20;5.40;;;26.70;99.90;;;;;;5092337;28;20204;-60
2023/06/11 09:13:19;;;;;;;6.97;5.30;;;26.70;99.90;;;;;;5092344;28;20208;-61
2023/06/11 09:15:49;;;;;;;6.03;5.43;;;26.80;99.90;;;;;;5091903;28;20768;-60
2023/06/11 09:18:22;;;;;;;5.35;4.90;;;26.80;99.90;;;;;;5092201;28;20220;-61
2023/06/11 09:20:51;;;;;;;6.70;5.50;;;26.80;99.90;;;;;;5092056;28;20737;-59
2023/06/11 09:23:26;;;;;;;8.48;5.63;;;26.90;99.90;;;;;;5092261;28;20287;-60
2023/06/11 09:25:58;;;;;;;6.13;5.13;;;27.00;99.90;;;;;;5091887;28;20234;-60
2023/06/11 09:28:30;;;;;;;6.32;5.30;;;27.20;99.90;;;;;;5092198;28;20299;-60
2023/06/11 09:31:00;;;;;;;5.43;5.03;;;27.40;99.90;;;;;;5091921;28;20215;-60
2023/06/11 09:33:28;;;;;;;7.57;5.28;;;27.50;99.90;;;;;;5092278;28;20231;-60
2023/06/11 09:35:56;;;;;;;5.95;5.32;;;27.50;99.90;;;;;;5091763;28;20228;-60
2023/06/11 09:38:23;;;;;;;5.50;5.00;;;27.60;99.90;;;;;;5091846;28;20273;-60
2023/06/11 09:40:53;;;;;;;6.18;5.40;;;27.70;99.90;;;;;;5091781;28;20717;-60
2023/06/11 09:43:21;;;;;;;9.38;5.15;;;27.80;99.90;;;;;;5102584;28;20647;-61
2023/06/11 09:45:52;;;;;;;7.25;4.70;;;28.00;99.90;;;;;;5111673;28;20267;-61
2023/06/11 09:48:22;;;;;;;6.22;4.85;;;28.10;99.90;;;;;;5112355;28;20199;-60
2023/06/11 09:50:50;;;;;;;5.90;4.88;;;28.20;99.90;;;;;;5111610;28;20256;-60
2023/06/11 09:53:18;;;;;;;5.13;4.70;;;28.20;99.90;;;;;;5111525;28;20287;-61
2023/06/11 09:55:46;;;;;;;5.93;4.90;;;28.40;99.90;;;;;;5111724;28;20433;-60
2023/06/11 09:58:28;;;;;;;7.97;5.05;;;28.60;99.90;;;;;;5112342;28;20254;-61
2023/06/11 10:01:00;;;;;;;6.32;4.38;;;28.70;99.90;;;;;;5112287;28;20230;-60
2023/06/11 10:03:33;;;;;;;8.18;4.53;;;28.80;99.90;;;;;;5112112;28;20242;-61
2023/06/11 10:06:04;;;;;;;5.85;4.60;;;29.00;99.90;;;;;;5111789;28;20350;-60
2023/06/11 10:08:32;;;;;;;4.97;4.43;;;29.20;98.70;;;;;;5112004;28;20254;-60
2023/06/11 10:11:02;;;;;;;5.45;4.57;;;29.40;96.70;;;;;;5112125;28;20234;-60
2023/06/11 10:13:31;;;;;;;9.18;4.68;;;29.30;95.90;;;;;;5112165;28;20239;-60
2023/06/11 10:16:00;;;;;;;7.10;4.93;;;29.30;94.90;;;;;;5111667;28;20231;-60
2023/06/11 10:18:29;;;;;;;6.57;4.90;;;29.40;95.70;;;;;;5111853;28;20213;-60
2023/06/11 10:20:59;;;;;;;5.38;4.70;;;29.40;94.50;;;;;;5111954;28;20671;-60
2023/06/11 10:23:35;;;;;;;5.50;4.85;;;29.50;93.80;;;;;;5112097;28;20203;-59
2023/06/11 10:26:04;;;;;;;7.78;4.30;;;29.70;94.20;;;;;;5111613;28;20230;-60
2023/06/11 10:28:36;;;;;;;5.53;4.95;;;29.90;93.90;;;;;;5112009;28;20294;-59
2023/06/11 10:31:04;;;;;;;5.97;4.70;;;30.10;92.80;;;;;;5111859;28;20214;-60
2023/06/11 10:33:43;;;;;;;5.57;5.13;;;30.10;93.70;;;;;;5111657;28;20671;-61
2023/06/11 10:36:23;;;;;;;5.15;4.75;;;30.20;93.00;;;;;;5111663;28;20233;-61
2023/06/11 10:38:52;;;;;;;5.13;4.80;;;30.30;93.20;;;;;;5111302;28;20264;-61
2023/06/11 10:41:29;;;;;;;5.72;5.25;;;30.50;91.90;;;;;;5111789;28;20611;-60
2023/06/11 10:43:57;;;;;;;9.35;5.15;;;30.50;91.40;;;;;;5095732;28;20203;-60
2023/06/11 10:46:25;;;;;;;7.00;4.75;;;30.70;92.00;;;;;;5092564;28;20227;-60
2023/06/11 10:48:54;;;;;;;7.28;4.65;;;30.60;91.40;;;;;;5095403;28;20204;-61
2023/06/11 10:51:23;;;;;;;4.85;4.55;;;31.00;92.90;;;;;;5095124;28;20208;-60
2023/06/11 10:53:58;;;;;;;7.55;4.93;;;31.20;90.90;;;;;;5095052;28;20204;-60
2023/06/11 10:56:26;;;;;;;5.43;4.82;;;31.40;91.60;;;;;;5094408;28;20233;-60
2023/06/11 10:58:55;;;;;;;6.65;4.85;;;31.60;90.50;;;;;;5095157;28;20656;-60
2023/06/11 11:01:22;;;;;;;6.88;4.90;;;31.50;90.80;;;;;;5094817;28;20628;-60
2023/06/11 11:03:51;;;;;;;5.90;5.40;;;31.70;90.70;;;;;;5094986;28;20299;-59
2023/06/11 11:06:26;;;;;;;5.43;4.93;;;31.80;89.60;;;;;;5094501;28;20234;-61
2023/06/11 11:08:56;;;;;;;8.80;5.18;;;31.90;87.70;;;;;;5094670;28;20237;-60
2023/06/11 11:11:24;;;;;;;6.93;5.20;;;31.70;85.60;;;;;;5094849;28;20233;-61
2023/06/11 11:13:52;;;;;;;5.60;4.93;;;31.90;89.10;;;;;;5094896;28;20208;-60
2023/06/11 11:16:20;;;;;;;6.10;4.93;;;32.00;86.30;;;;;;5094420;28;20306;-61
2023/06/11 11:18:48;;;;;;;7.57;4.95;;;32.00;84.00;;;;;;5094540;28;20663;-61
2023/06/11 11:21:16;;;;;;;5.13;4.70;;;32.20;84.80;;;;;;5094418;28;20212;-61
2023/06/11 11:23:48;;;;;;;5.13;4.60;;;32.50;85.90;;;;;;5094547;28;20212;-61
2023/06/11 11:26:18;;;;;;;14.40;4.70;;;32.70;83.90;;;;;;5094176;28;20234;-61
2023/06/11 11:28:46;;;;;;;5.57;5.18;;;32.90;81.60;;;;;;5094574;28;20207;-61
2023/06/11 11:31:13;;;;;;;5.40;4.95;;;33.00;80.00;;;;;;5094377;28;20204;-61
2023/06/11 11:33:41;;;;;;;8.65;5.10;;;33.00;82.60;;;;;;5094392;28;20306;-60
2023/06/11 11:36:09;;;;;;;7.70;5.28;;;33.20;81.00;;;;;;5093777;28;20766;-60
2023/06/11 11:38:38;;;;;;;5.95;5.25;;;33.40;81.20;;;;;;5094178;28;20240;-61
2023/06/11 11:41:09;;;;;;;5.30;4.80;;;33.70;80.70;;;;;;5094071;28;20315;-60
2023/06/11 11:43:38;;;;;;;5.30;4.90;;;33.70;78.80;;;;;;5107695;28;20203;-61
2023/06/11 11:46:15;;;;;;;5.43;4.90;;;33.50;75.20;;;;;;5114180;28;20653;-61
2023/06/11 11:48:43;;;;;;;8.40;5.30;;;33.20;78.40;;;;;;5114363;28;20290;-61
2023/06/11 11:51:13;;;;;;;9.15;5.03;;;33.00;75.80;;;;;;5114465;28;20215;-60
2023/06/11 11:53:41;;;;;;;5.53;4.97;;;32.90;77.20;;;;;;5114410;28;20214;-61
2023/06/11 11:56:10;;;;;;;5.45;4.95;;;33.30;80.20;;;;;;5115123;22;20259;-59
2023/06/11 11:58:40;;;;;;;7.40;5.00;;;33.80;77.10;;;;;;5091900;28;20299;-59
2023/06/11 12:01:09;;;;;;;6.80;5.40;;;34.00;75.20;;;;;;5091612;28;20228;-59
2023/06/11 12:03:37;;;;;;;5.53;4.60;;;34.00;78.20;;;;;;5092472;28;20232;-59
2023/06/11 12:06:06;;;;;;;7.40;5.10;;;34.30;73.60;;;;;;5092095;28;20810;-58
2023/06/11 12:08:35;;;;;;;9.68;4.85;;;34.30;73.30;;;;;;5092070;28;20213;-59
2023/06/11 12:11:06;;;;;;;5.53;4.93;;;34.60;76.10;;;;;;5092050;28;20641;-59
2023/06/11 12:13:36;;;;;;;6.43;4.78;;;34.60;75.70;;;;;;5091023;28;20211;-59
2023/06/11 12:16:04;;;;;;;8.73;5.22;;;35.00;75.50;;;;;;5092382;28;20315;-58
2023/06/11 12:18:32;;;;;;;9.07;5.18;;;35.10;72.50;;;;;;5093436;28;20231;-60
2023/06/11 12:21:01;;;;;;;6.80;5.07;;;35.00;72.20;;;;;;5080869;28;20223;-60
2023/06/11 12:23:28;;;;;;;5.38;5.00;;;35.20;72.10;;;;;;5093051;28;20240;-61
2023/06/11 12:25:57;;;;;;;7.82;4.82;;;34.90;72.10;;;;;;5092260;28;20307;-61
2023/06/11 12:28:24;;;;;;;6.85;5.03;;;34.30;71.70;;;;;;5088249;28;20222;-59
2023/06/11 12:30:54;;;;;;;5.05;4.65;;;34.00;70.10;;;;;;5072688;28;20292;-58
2023/06/11 12:33:22;;;;;;;5.50;5.13;;;33.60;68.90;;;;;;5072899;28;20308;-60
2023/06/11 12:35:50;;;;;;;6.40;4.75;;;33.80;70.50;;;;;;5090146;28;20307;-60
2023/06/11 12:38:18;;;;;;;6.95;4.70;;;34.10;69.90;;;;;;5084006;28;20239;-60
2023/06/11 12:40:46;;;;;;;5.28;4.82;;;34.60;69.20;;;;;;5079405;28;20273;-59
2023/06/11 12:43:14;;;;;;;5.07;4.53;;;34.70;68.00;;;;;;5091591;28;20214;-59
2023/06/11 12:45:42;;;;;;;5.28;4.80;;;35.00;69.60;;;;;;5092475;28;20235;-60
2023/06/11 12:48:11;;;;;;;7.25;4.72;;;35.00;66.50;;;;;;5083848;28;20717;-59
2023/06/11 12:50:39;;;;;;;4.95;4.55;;;35.20;66.80;;;;;;5092285;28;20211;-60
2023/06/11 12:53:07;;;;;;;6.63;4.80;;;35.10;65.40;;;;;;5091059;28;20269;-59